createdAt,value
2022-09-20T00:01:56.647Z,65.30
2022-09-20T00:04:26.494Z,64.90
2022-09-20T00:06:54.831Z,64.90
2022-09-20T00:09:23.174Z,64.80
2022-09-20T00:11:52.433Z,64.90
2022-09-20T00:14:20.738Z,64.90
2022-09-20T00:16:49.093Z,64.70
2022-09-20T00:19:21.082Z,64.70
2022-09-20T00:21:51.099Z,65.40
2022-09-20T00:24:21.753Z,65.10
2022-09-20T00:26:50.091Z,65.10
2022-09-20T00:29:18.498Z,65.20
2022-09-20T00:31:47.314Z,65.20
2022-09-20T00:34:33.154Z,65.20
2022-09-20T00:37:02.891Z,65.20
2022-09-20T00:39:31.593Z,65.10
2022-09-20T00:42:02.296Z,65.40
2022-09-20T00:44:50.873Z,65.40
2022-09-20T00:47:29.339Z,65.50
2022-09-20T00:50:01.199Z,65.40
2022-09-20T00:52:30.917Z,65.40
2022-09-20T00:55:01.068Z,65.40
2022-09-20T00:57:35.232Z,64.80
2022-09-20T01:00:08.537Z,65.10
2022-09-20T01:02:39.084Z,65.20
2022-09-20T01:05:10.631Z,65.20
2022-09-20T01:07:40.940Z,65.10
2022-09-20T01:10:09.767Z,65.10
2022-09-20T01:12:41.743Z,65.30
2022-09-20T01:15:14.551Z,65.40
2022-09-20T01:17:47.909Z,65.40
2022-09-20T01:20:22.600Z,65.30
2022-09-20T01:23:20.706Z,65.20
2022-09-20T01:26:16.702Z,65.30
2022-09-20T01:28:49.980Z,65.10
2022-09-20T01:31:24.289Z,65.00
2022-09-20T01:33:58.618Z,65.20
2022-09-20T01:36:40.664Z,65.30
2022-09-20T01:39:13.070Z,65.30
2022-09-20T01:41:45.716Z,65.20
2022-09-20T01:44:23.981Z,65.20
2022-09-20T01:46:59.935Z,65.20
2022-09-20T01:49:37.387Z,65.20
2022-09-20T01:52:54.959Z,65.20
2022-09-20T01:56:02.742Z,65.40
2022-09-20T01:59:24.261Z,65.40
2022-09-20T02:02:16.717Z,65.40
2022-09-20T02:05:13.348Z,65.30
2022-09-20T02:08:32.521Z,65.20
2022-09-20T02:11:10.798Z,65.30
2022-09-20T02:14:04.810Z,65.10
2022-09-20T02:16:49.563Z,65.20
2022-09-20T02:19:56.702Z,65.30
2022-09-20T02:22:39.883Z,65.50
2022-09-20T02:25:19.102Z,65.30
2022-09-20T02:28:03.342Z,65.60
2022-09-20T02:30:45.113Z,65.70
2022-09-20T02:36:43.225Z,65.60
2022-09-20T02:39:16.619Z,65.70
2022-09-20T02:42:00.564Z,65.60
2022-09-20T02:44:44.992Z,65.70
2022-09-20T02:47:22.793Z,65.70
2022-09-20T02:50:13.804Z,65.80
2022-09-20T02:52:52.562Z,65.80
2022-09-20T02:55:32.038Z,65.70
2022-09-20T02:58:21.413Z,65.90
2022-09-20T03:00:56.886Z,65.90
2022-09-20T03:03:38.969Z,65.80
2022-09-20T03:06:15.911Z,65.90
2022-09-20T03:08:55.194Z,66.00
2022-09-20T03:11:30.584Z,66.30
2022-09-20T03:14:19.126Z,66.30
2022-09-20T03:17:07.955Z,66.30
2022-09-20T03:19:50.182Z,66.40
2022-09-20T03:22:32.496Z,66.30
2022-09-20T03:25:28.646Z,66.30
2022-09-20T03:28:05.394Z,66.40
2022-09-20T03:30:47.585Z,66.70
2022-09-20T03:33:27.897Z,66.60
2022-09-20T03:36:08.695Z,66.60
2022-09-20T03:38:53.047Z,66.80
2022-09-20T03:41:46.766Z,66.80
2022-09-20T03:44:39.961Z,66.90
2022-09-20T03:47:21.492Z,66.80
2022-09-20T03:50:23.926Z,66.70
2022-09-20T03:53:10.876Z,67.10
2022-09-20T03:56:02.218Z,66.90
2022-09-20T03:58:47.160Z,67.00
2022-09-20T04:01:40.114Z,66.90
2022-09-20T04:04:17.106Z,67.70
2022-09-20T04:06:59.294Z,67.10
2022-09-20T04:09:47.437Z,67.10
2022-09-20T04:12:27.201Z,67.70
2022-09-20T04:15:04.456Z,67.00
2022-09-20T04:17:46.395Z,67.10
2022-09-20T04:20:21.816Z,67.30
2022-09-20T04:22:58.102Z,67.10
2022-09-20T04:25:34.383Z,67.10
2022-09-20T04:28:09.879Z,67.50
2022-09-20T04:30:44.146Z,67.50
2022-09-20T04:33:22.130Z,67.10
2022-09-20T04:36:28.711Z,67.00
2022-09-20T04:39:06.373Z,67.00
2022-09-20T04:42:15.418Z,67.10
2022-09-20T04:45:18.093Z,67.20
2022-09-20T04:48:10.358Z,66.80
2022-09-20T04:51:25.712Z,66.80
2022-09-20T04:54:18.055Z,67.10
2022-09-20T04:57:05.790Z,67.20
2022-09-20T04:59:55.721Z,67.00
2022-09-20T05:02:59.256Z,67.00
2022-09-20T05:09:22.997Z,67.30
2022-09-20T05:12:10.961Z,67.20
2022-09-20T05:15:00.499Z,67.10
2022-09-20T05:17:46.175Z,67.20
2022-09-20T05:20:59.586Z,67.10
2022-09-20T05:23:48.445Z,67.00
2022-09-20T05:26:25.704Z,67.60
2022-09-20T05:29:00.945Z,66.90
2022-09-20T05:31:38.347Z,66.60
2022-09-20T05:34:18.149Z,66.40
2022-09-20T05:36:58.487Z,65.80
2022-09-20T05:39:36.078Z,65.00
2022-09-20T05:42:15.951Z,64.20
2022-09-20T05:45:04.674Z,67.20
2022-09-20T05:47:50.876Z,68.00
2022-09-20T05:50:45.826Z,67.60
2022-09-20T05:53:33.274Z,66.60
2022-09-20T05:56:13.029Z,61.60
2022-09-20T05:58:58.192Z,57.90
2022-09-20T06:01:27.834Z,56.30
2022-09-20T06:04:09.361Z,54.70
2022-09-20T06:06:53.421Z,53.70
2022-09-20T06:09:38.966Z,55.40
2022-09-20T06:12:21.013Z,53.30
2022-09-20T06:15:00.159Z,52.20
2022-09-20T06:17:37.881Z,51.90
2022-09-20T06:20:23.755Z,51.40
2022-09-20T06:22:59.335Z,51.30
2022-09-20T06:25:33.621Z,51.10
2022-09-20T06:28:07.193Z,50.90
2022-09-20T06:30:40.943Z,50.50
2022-09-20T06:33:17.315Z,50.40
2022-09-20T06:35:51.897Z,50.60
2022-09-20T06:39:04.116Z,50.40
2022-09-20T06:41:35.463Z,50.50
2022-09-20T06:44:06.731Z,50.30
2022-09-20T06:46:38.581Z,50.00
2022-09-20T06:49:08.349Z,51.90
2022-09-20T06:51:38.427Z,50.60
2022-09-20T06:54:14.865Z,49.90
2022-09-20T06:56:44.485Z,49.30
2022-09-20T06:59:12.918Z,50.90
2022-09-20T07:01:41.187Z,49.70
2022-09-20T07:04:11.744Z,48.60
2022-09-20T07:06:40.648Z,48.10
2022-09-20T07:09:12.521Z,47.80
2022-09-20T07:11:40.731Z,49.70
2022-09-20T07:14:08.964Z,51.20
2022-09-20T07:16:37.435Z,50.90
2022-09-20T07:19:06.616Z,50.80
2022-09-20T07:21:37.106Z,50.60
2022-09-20T07:24:05.396Z,50.60
2022-09-20T07:26:35.231Z,50.40
2022-09-20T07:29:06.876Z,50.70
2022-09-20T07:31:35.077Z,50.30
2022-09-20T07:34:03.311Z,50.40
2022-09-20T07:36:31.542Z,50.10
2022-09-20T07:38:59.727Z,49.70
2022-09-20T07:41:30.523Z,49.50
2022-09-20T07:44:20.164Z,49.20
2022-09-20T07:46:50.826Z,49.30
2022-09-20T07:49:22.031Z,48.30
2022-09-20T07:51:50.823Z,48.10
2022-09-20T07:54:19.337Z,47.30
2022-09-20T07:56:50.008Z,47.60
2022-09-20T07:59:22.019Z,47.20
2022-09-20T08:01:50.235Z,46.80
2022-09-20T08:04:18.861Z,46.50
2022-09-20T08:06:47.814Z,46.70
2022-09-20T08:09:19.296Z,47.20
2022-09-20T08:11:47.850Z,46.80
2022-09-20T08:14:17.529Z,46.10
2022-09-20T08:16:49.734Z,46.20
2022-09-20T08:19:21.820Z,45.90
2022-09-20T08:21:51.108Z,46.50
2022-09-20T08:24:19.402Z,45.90
2022-09-20T08:26:48.354Z,46.20
2022-09-20T08:29:16.586Z,45.40
2022-09-20T08:31:48.973Z,45.60
2022-09-20T08:34:17.922Z,45.60
2022-09-20T08:36:51.779Z,45.20
2022-09-20T08:42:15.623Z,44.90
2022-09-20T08:44:59.999Z,44.10
2022-09-20T08:47:32.212Z,43.20
2022-09-20T08:50:09.246Z,43.10
2022-09-20T08:52:40.277Z,43.70
2022-09-20T08:55:16.889Z,43.60
2022-09-20T08:57:50.177Z,43.00
2022-09-20T09:00:20.851Z,42.90
2022-09-20T09:02:53.232Z,43.50
2022-09-20T09:05:33.473Z,44.00
2022-09-20T09:08:05.052Z,42.20
2022-09-20T09:10:45.916Z,42.50
2022-09-20T09:13:25.005Z,41.30
2022-09-20T09:15:57.996Z,41.20
2022-09-20T09:18:34.876Z,41.20
2022-09-20T09:21:05.434Z,41.60
2022-09-20T09:23:42.041Z,41.10
2022-09-20T09:26:18.871Z,41.40
2022-09-20T09:28:48.446Z,40.50
2022-09-20T09:31:26.152Z,40.70
2022-09-20T09:33:58.937Z,40.30
2022-09-20T09:36:27.868Z,40.30
2022-09-20T09:39:17.656Z,39.90
2022-09-20T09:41:46.501Z,39.10
2022-09-20T09:44:24.127Z,39.70
2022-09-20T09:46:54.477Z,39.90
2022-09-20T09:49:25.765Z,40.60
2022-09-20T09:52:13.249Z,40.90
2022-09-20T09:54:44.551Z,40.60
2022-09-20T09:57:37.916Z,40.80
2022-09-20T10:00:19.864Z,40.30
2022-09-20T10:03:07.488Z,40.60
2022-09-20T10:05:47.600Z,40.80
2022-09-20T10:08:27.521Z,41.00
2022-09-20T10:11:10.236Z,41.00
2022-09-20T10:13:48.725Z,40.90
2022-09-20T10:16:29.203Z,40.90
2022-09-20T10:19:08.027Z,40.20
2022-09-20T10:21:48.964Z,40.70
2022-09-20T10:24:30.859Z,41.10
2022-09-20T10:27:13.855Z,40.50
2022-09-20T10:29:53.559Z,39.90
2022-09-20T10:32:32.122Z,39.60
2022-09-20T10:35:27.330Z,39.20
2022-09-20T10:38:13.793Z,39.40
2022-09-20T10:41:32.306Z,39.60
2022-09-20T10:44:09.951Z,39.70
2022-09-20T10:46:53.117Z,38.60
2022-09-20T10:49:36.009Z,39.00
2022-09-20T10:52:39.687Z,38.30
2022-09-20T10:55:27.100Z,38.50
2022-09-20T10:58:28.411Z,38.20
2022-09-20T11:01:02.319Z,37.30
2022-09-20T11:03:52.693Z,36.10
2022-09-20T11:06:27.667Z,36.60
2022-09-20T11:08:59.471Z,35.50
2022-09-20T11:11:35.734Z,35.60
2022-09-20T11:14:07.490Z,35.00
2022-09-20T11:16:41.966Z,35.40
2022-09-20T11:19:20.718Z,34.40
2022-09-20T11:21:55.309Z,35.30
2022-09-20T11:24:32.689Z,35.60
2022-09-20T11:27:12.641Z,34.70
2022-09-20T11:29:46.301Z,34.70
2022-09-20T11:32:22.135Z,35.60
2022-09-20T11:34:55.509Z,36.50
2022-09-20T11:37:29.002Z,35.70
2022-09-20T11:40:00.230Z,33.00
2022-09-20T11:42:37.107Z,34.00
2022-09-20T11:45:05.996Z,35.00
2022-09-20T11:47:54.457Z,36.30
2022-09-20T11:50:52.162Z,36.90
2022-09-20T11:53:39.745Z,36.60
2022-09-20T11:56:13.948Z,36.70
2022-09-20T11:58:50.595Z,35.30
2022-09-20T12:01:28.672Z,35.40
2022-09-20T12:04:14.580Z,36.30
2022-09-20T12:06:49.026Z,36.70
2022-09-20T12:09:26.483Z,36.30
2022-09-20T12:11:55.228Z,34.90
2022-09-20T12:14:29.021Z,35.00
2022-09-20T12:16:57.943Z,35.80
2022-09-20T12:19:39.020Z,37.40
2022-09-20T12:22:29.684Z,37.90
2022-09-20T12:25:39.556Z,36.30
2022-09-20T12:28:16.131Z,36.80
2022-09-20T12:30:45.758Z,37.10
2022-09-20T12:33:22.147Z,37.60
2022-09-20T12:35:54.804Z,37.10
2022-09-20T12:38:31.304Z,36.80
2022-09-20T12:41:08.411Z,35.50
2022-09-20T12:43:48.915Z,31.40
2022-09-20T12:46:27.238Z,32.70
2022-09-20T12:49:39.239Z,33.60
2022-09-20T12:52:38.537Z,33.30
2022-09-20T12:55:10.967Z,32.40
2022-09-20T12:57:40.850Z,32.50
2022-09-20T13:00:32.351Z,32.60
2022-09-20T13:03:11.496Z,34.30
2022-09-20T13:05:41.934Z,32.30
2022-09-20T13:08:21.851Z,33.30
2022-09-20T13:11:00.735Z,34.40
2022-09-20T13:13:34.461Z,34.70
2022-09-20T13:16:06.118Z,33.10
2022-09-20T13:18:37.863Z,35.00
2022-09-20T13:21:09.074Z,35.50
2022-09-20T13:23:47.936Z,34.40
2022-09-20T13:26:16.721Z,35.40
2022-09-20T13:28:51.585Z,35.00
2022-09-20T13:31:32.106Z,35.40
2022-09-20T13:34:22.319Z,35.70
2022-09-20T13:36:59.483Z,34.90
2022-09-20T13:39:32.134Z,35.90
2022-09-20T13:42:03.382Z,36.10
2022-09-20T13:44:34.396Z,36.10
2022-09-20T13:47:02.842Z,36.20
2022-09-20T13:49:33.895Z,36.90
2022-09-20T13:52:21.511Z,37.30
2022-09-20T13:54:49.675Z,37.20
2022-09-20T13:57:23.951Z,37.00
2022-09-20T13:59:52.694Z,37.20
2022-09-20T14:02:25.144Z,38.10
2022-09-20T14:04:57.032Z,38.60
2022-09-20T14:07:28.140Z,38.80
2022-09-20T14:09:58.975Z,37.60
2022-09-20T14:12:28.596Z,36.90
2022-09-20T14:14:57.200Z,38.00
2022-09-20T14:17:32.161Z,39.00
2022-09-20T14:20:02.343Z,39.30
2022-09-20T14:22:31.368Z,39.50
2022-09-20T14:25:02.839Z,40.00
2022-09-20T14:27:33.298Z,40.60
2022-09-20T14:30:03.882Z,40.70
2022-09-20T14:32:46.124Z,41.10
2022-09-20T14:35:18.680Z,40.80
2022-09-20T14:37:49.625Z,40.90
2022-09-20T14:40:25.176Z,41.50
2022-09-20T14:42:58.971Z,42.20
2022-09-20T14:45:33.002Z,42.80
2022-09-20T14:48:09.579Z,42.90
2022-09-20T14:50:42.225Z,42.40
2022-09-20T14:53:31.920Z,42.90
2022-09-20T14:56:08.851Z,42.50
2022-09-20T14:59:21.891Z,42.20
2022-09-20T15:02:04.105Z,42.70
2022-09-20T15:04:33.107Z,43.70
2022-09-20T15:07:09.027Z,43.60
2022-09-20T15:09:37.351Z,44.10
2022-09-20T15:12:07.917Z,44.10
2022-09-20T15:14:38.092Z,44.00
2022-09-20T15:17:07.332Z,44.10
2022-09-20T15:19:39.376Z,44.50
2022-09-20T15:22:10.111Z,44.40
2022-09-20T15:24:38.556Z,44.80
2022-09-20T15:27:07.241Z,44.90
2022-09-20T15:29:35.465Z,44.60
2022-09-20T15:32:05.892Z,44.10
2022-09-20T15:34:34.165Z,43.60
2022-09-20T15:37:02.455Z,43.60
2022-09-20T15:39:32.140Z,44.20
2022-09-20T15:42:00.384Z,44.30
2022-09-20T15:44:28.726Z,44.30
2022-09-20T15:46:57.128Z,43.90
2022-09-20T15:49:25.340Z,44.30
2022-09-20T15:51:53.501Z,45.70
2022-09-20T15:54:21.874Z,46.30
2022-09-20T15:56:53.361Z,47.30
2022-09-20T15:59:23.251Z,48.00
2022-09-20T16:01:51.748Z,48.20
2022-09-20T16:04:21.343Z,47.70
2022-09-20T16:06:51.021Z,46.90
2022-09-20T16:09:19.337Z,45.70
2022-09-20T16:11:48.221Z,45.80
2022-09-20T16:14:17.875Z,46.00
2022-09-20T16:16:46.349Z,45.20
2022-09-20T16:19:20.875Z,46.20
2022-09-20T16:21:56.594Z,47.40
2022-09-20T16:24:27.032Z,48.50
2022-09-20T16:26:55.680Z,48.70
2022-09-20T16:29:26.115Z,49.00
2022-09-20T16:31:55.311Z,48.50
2022-09-20T16:34:30.964Z,48.70
2022-09-20T16:37:01.020Z,48.90
2022-09-20T16:39:32.728Z,49.20
2022-09-20T16:42:04.973Z,50.80
2022-09-20T16:44:38.729Z,50.90
2022-09-20T16:47:08.931Z,51.10
2022-09-20T16:49:40.206Z,51.50
2022-09-20T16:52:12.203Z,50.30
2022-09-20T16:54:40.643Z,49.90
2022-09-20T16:57:08.970Z,49.20
2022-09-20T16:59:38.541Z,49.50
2022-09-20T17:02:06.751Z,49.60
2022-09-20T17:04:34.960Z,50.20
2022-09-20T17:07:03.161Z,50.80
2022-09-20T17:09:31.363Z,50.30
2022-09-20T17:12:00.243Z,50.00
2022-09-20T17:14:28.500Z,50.10
2022-09-20T17:16:58.122Z,50.30
2022-09-20T17:19:27.034Z,50.00
2022-09-20T17:21:55.224Z,49.60
2022-09-20T17:24:24.899Z,49.20
2022-09-20T17:26:53.881Z,49.00
2022-09-20T17:29:22.337Z,49.50
2022-09-20T17:31:55.771Z,48.90
2022-09-20T17:34:28.095Z,48.40
2022-09-20T17:36:56.284Z,48.70
2022-09-20T17:39:24.595Z,48.50
2022-09-20T17:41:52.857Z,46.50
2022-09-20T17:44:20.841Z,45.10
2022-09-20T17:46:50.750Z,44.70
2022-09-20T17:49:19.782Z,45.10
2022-09-20T17:51:49.956Z,45.10
2022-09-20T17:54:19.455Z,45.20
2022-09-20T17:56:50.388Z,45.40
2022-09-20T17:59:20.265Z,45.50
2022-09-20T18:01:50.603Z,46.20
2022-09-20T18:04:21.009Z,46.50
2022-09-20T18:06:52.661Z,46.80
2022-09-20T18:09:22.516Z,47.00
2022-09-20T18:11:54.638Z,47.20
2022-09-20T18:14:24.439Z,47.50
2022-09-20T18:16:53.459Z,48.30
2022-09-20T18:19:22.749Z,47.90
2022-09-20T18:21:52.631Z,48.10
2022-09-20T18:24:20.819Z,50.90
2022-09-20T18:26:49.051Z,52.40
2022-09-20T18:29:18.588Z,50.50
2022-09-20T18:31:49.241Z,49.50
2022-09-20T18:34:19.210Z,49.30
2022-09-20T18:36:49.961Z,49.20
2022-09-20T18:39:21.002Z,49.30
2022-09-20T18:41:50.583Z,52.30
2022-09-20T18:44:19.502Z,53.90
2022-09-20T18:46:48.105Z,54.60
2022-09-20T18:49:17.148Z,55.00
2022-09-20T18:51:47.254Z,52.50
2022-09-20T18:54:17.762Z,51.30
2022-09-20T18:56:48.006Z,51.00
2022-09-20T18:59:18.366Z,50.80
2022-09-20T19:02:25.674Z,50.70
2022-09-20T19:05:18.738Z,51.30
2022-09-20T19:08:00.241Z,51.70
2022-09-20T19:10:41.575Z,52.10
2022-09-20T19:13:35.784Z,52.30
2022-09-20T19:16:12.608Z,52.40
2022-09-20T19:18:56.352Z,52.30
2022-09-20T19:21:29.236Z,52.40
2022-09-20T19:24:08.010Z,55.60
2022-09-20T19:26:38.679Z,57.30
2022-09-20T19:29:19.428Z,54.80
2022-09-20T19:31:49.636Z,53.60
2022-09-20T19:34:21.408Z,53.20
2022-09-20T19:36:58.627Z,53.20
2022-09-20T19:39:38.046Z,53.40
2022-09-20T19:42:22.152Z,53.10
2022-09-20T19:44:59.604Z,53.50
2022-09-20T19:47:38.135Z,53.70
2022-09-20T19:50:16.440Z,53.80
2022-09-20T19:52:45.436Z,54.10
2022-09-20T19:55:16.858Z,54.40
2022-09-20T19:57:47.165Z,54.60
2022-09-20T20:00:19.738Z,54.70
2022-09-20T20:02:48.802Z,54.90
2022-09-20T20:05:21.206Z,54.90
2022-09-20T20:07:57.872Z,55.10
2022-09-20T20:10:33.326Z,55.20
2022-09-20T20:13:31.775Z,55.40
2022-09-20T20:16:04.138Z,55.50
2022-09-20T20:18:34.750Z,55.70
2022-09-20T20:21:04.485Z,55.90
2022-09-20T20:23:40.749Z,55.70
2022-09-20T20:26:10.110Z,55.70
2022-09-20T20:28:38.472Z,55.90
2022-09-20T20:31:12.378Z,56.00
2022-09-20T20:33:41.294Z,56.20
2022-09-20T20:36:11.251Z,56.20
2022-09-20T20:38:43.805Z,56.90
2022-09-20T20:41:13.604Z,57.00
2022-09-20T20:43:45.777Z,57.00
2022-09-20T20:46:18.640Z,57.00
2022-09-20T20:48:48.417Z,60.10
2022-09-20T20:51:19.292Z,58.80
2022-09-20T20:53:49.555Z,57.90
2022-09-20T20:56:19.615Z,57.60
2022-09-20T20:58:48.988Z,57.40
2022-09-20T21:01:21.646Z,57.40
2022-09-20T21:03:52.122Z,60.80
2022-09-20T21:06:24.837Z,62.60
2022-09-20T21:08:53.546Z,60.00
2022-09-20T21:11:23.773Z,58.50
2022-09-20T21:13:57.129Z,58.00
2022-09-20T21:16:28.692Z,57.90
2022-09-20T21:18:57.316Z,57.90
2022-09-20T21:21:27.166Z,61.20
2022-09-20T21:23:57.025Z,59.90
2022-09-20T21:26:28.554Z,58.80
2022-09-20T21:28:59.622Z,58.30
2022-09-20T21:31:30.978Z,58.10
2022-09-20T21:33:59.731Z,58.10
2022-09-20T21:36:30.046Z,58.00
2022-09-20T21:38:58.638Z,58.00
2022-09-20T21:41:29.326Z,58.10
2022-09-20T21:44:00.141Z,58.20
2022-09-20T21:46:31.218Z,58.30
2022-09-20T21:49:03.533Z,58.50
2022-09-20T21:51:32.832Z,58.70
2022-09-20T21:54:03.237Z,58.90
2022-09-20T21:56:33.649Z,59.10
2022-09-20T21:59:04.088Z,59.30
2022-09-20T22:01:35.925Z,59.30
2022-09-20T22:04:08.148Z,59.20
2022-09-20T22:06:37.884Z,59.20
2022-09-20T22:09:08.434Z,59.40
2022-09-20T22:11:39.233Z,59.50
2022-09-20T22:14:08.538Z,59.60
2022-09-20T22:16:39.862Z,59.60
2022-09-20T22:19:09.735Z,59.50
2022-09-20T22:21:40.165Z,59.70
2022-09-20T22:24:10.538Z,59.40
2022-09-20T22:26:40.185Z,59.50
2022-09-20T22:29:08.616Z,59.60
2022-09-20T22:31:41.473Z,59.70
2022-09-20T22:34:09.692Z,59.90
2022-09-20T22:36:39.870Z,60.20
2022-09-20T22:39:10.534Z,60.20
2022-09-20T22:41:42.679Z,60.20
2022-09-20T22:44:11.545Z,60.40
2022-09-20T22:46:41.615Z,60.30
2022-09-20T22:49:12.172Z,60.30
2022-09-20T22:51:42.534Z,60.20
2022-09-20T22:54:12.103Z,60.30
2022-09-20T22:56:41.469Z,60.40
2022-09-20T22:59:15.943Z,60.40
2022-09-20T23:01:47.182Z,60.30
2022-09-20T23:04:17.130Z,60.20
2022-09-20T23:06:48.753Z,60.10
2022-09-20T23:09:18.417Z,60.10
2022-09-20T23:11:47.170Z,60.20
2022-09-20T23:14:18.939Z,60.30
2022-09-20T23:16:51.261Z,60.30
2022-09-20T23:19:19.864Z,60.20
2022-09-20T23:21:50.495Z,60.20
2022-09-20T23:24:18.667Z,60.10
2022-09-20T23:26:46.877Z,60.00
2022-09-20T23:29:18.212Z,60.10
2022-09-20T23:31:47.204Z,59.80
2022-09-20T23:34:17.546Z,59.70
2022-09-20T23:36:45.965Z,59.90
2022-09-20T23:39:14.056Z,59.80
2022-09-20T23:41:45.768Z,59.80
2022-09-20T23:44:16.482Z,59.80
2022-09-20T23:46:44.714Z,59.90
2022-09-20T23:49:12.674Z,60.10
2022-09-20T23:51:43.012Z,60.20
2022-09-20T23:54:10.978Z,60.50
2022-09-20T23:56:40.212Z,60.70
2022-09-20T23:59:08.274Z,60.90
